Des Moines, IA

9:24 PM CST on February 05, 2016 (GMT -0600)
Ghetto Meadows | | Change Station
CLOSE
Current Station
Personal Weather Station
Location: Des Moines, IA
Elevation: 900 ft
Nearby Weather Stations

Elev 900 ft 41.59 °N, 93.69 °W | Updated 13 days ago

Cloudy
Cloudy
28 °F
Feels Like 22 °F
N
6
Wind Variable Wind from South
Gusts mph

Today
High -- | Low -- °F
--% Chance of Precip.
Yesterday
High -- | Low -- °F
Precip. -- in
Pressure 30.31 in
Visibility 9.0 miles
Clouds Overcast 1900 ft
Windchill 22 °F
Dew Point 24 °F
Humidity 86%
Rainfall in
Snow Depth Not available.
7:22 AM 5:35 PM
Waning Crescent, 8% visible
METAR KDSM 060254Z 17008KT 9SM -SN OVC019 M01/M04 A3027 RMK AO2 SLP263 P0000 60001 T10111044 58007
Pressure 30.31 in
Visibility 9.0 miles
Clouds Overcast 1900 ft
Windchill 22 °F
Dew Point 24 °F
Humidity 86%
Rainfall in
Snow Depth Not available.
7:22 AM 5:35 PM
Waning Crescent, 8% visible
METAR KDSM 060254Z 17008KT 9SM -SN OVC019 M01/M04 A3027 RMK AO2 SLP263 P0000 60001 T10111044 58007

10-Day Weather Forecast

Almanac

Astronomy

Feb. 05, 2016 Rise Set
Actual Time
Civil Twilight
Nautical Twilight
Astronomical Twilight
Moon
Length of Visible Light
Length of Day
Tomorrow will be .
, % of the Moon is Illuminated

Today's Extremes

State Highs State Lows

Community

WunderPhotos

Upload Photos

1,890,918 photos uploaded!

WunderBlog® & News

Nearby

Air Quality

  Air Quality AQ Index Pollutant
Not available.

Snow Depth

Station Depth Elevation

Earthquake Activity

City Distance Mag. Time & Date
Minimum magnitude displayed is 2.5.

Coastal Water Temperatures

Place Temperature

Stations

Nearby Weather Stations

Station Location Temp. Windchill Dew Point Humidity Wind Precip. Elev Updated Type
                   

Watches & Warnings

There are currently no watches in effect.